createdAt,value
2019-01-25T08:46:05.155Z,-3.20
2019-01-25T08:48:35.496Z,-2.60
2019-01-25T08:51:04.588Z,-2.40
2019-01-25T08:53:35.617Z,-2.20
2019-01-25T08:56:12.822Z,-2.20
2019-01-25T10:23:11.241Z,-2.70
2019-01-25T10:31:53.429Z,-2.10
2019-01-25T10:34:23.333Z,-2.10
2019-01-25T10:37:02.928Z,-2.00
2019-01-25T10:49:45.304Z,-2.10
2019-01-25T10:52:18.455Z,-1.90
2019-01-25T10:54:48.450Z,-1.50
2019-01-25T10:57:17.762Z,-1.40
2019-01-25T10:59:57.138Z,-1.00
2019-01-25T11:02:25.813Z,-0.90
2019-01-25T11:04:57.426Z,-0.70
2019-01-25T11:07:27.559Z,-0.60
2019-01-25T11:09:58.972Z,-0.70
2019-01-25T11:12:34.821Z,-1.00
2019-01-25T11:15:02.473Z,-1.10
2019-01-25T11:30:48.881Z,-1.40
2019-01-25T11:40:17.832Z,-1.50
2019-01-25T11:53:13.322Z,-1.30
2019-01-25T11:55:42.078Z,-1.00
2019-01-25T12:01:13.236Z,-1.00
2019-01-25T12:03:42.441Z,-1.10
2019-01-25T12:06:13.792Z,-0.80
2019-01-25T12:08:46.104Z,-1.00
2019-01-25T12:11:33.581Z,-1.10
2019-01-25T12:14:06.604Z,-1.00
2019-01-25T12:16:35.276Z,-1.00
2019-01-25T12:19:06.300Z,-0.50
2019-01-25T12:21:34.937Z,-0.30
2019-01-25T12:24:03.554Z,-0.50
2019-01-25T12:26:33.837Z,-0.20
2019-01-25T12:29:04.238Z,0.00
2019-01-25T12:31:34.879Z,-0.10
2019-01-25T12:34:08.829Z,0.00
2019-01-25T12:36:37.428Z,-0.20
2019-01-25T12:39:08.152Z,-0.40
2019-01-25T12:45:41.580Z,-0.70
2019-01-25T12:48:10.447Z,-1.00
2019-01-25T12:54:13.027Z,-1.00
2019-01-25T12:56:59.366Z,-1.00
2019-01-25T13:06:43.349Z,-1.00
2019-01-25T13:09:15.945Z,-0.60
2019-01-25T13:14:38.454Z,-0.90
2019-01-25T13:17:07.160Z,-0.90
2019-01-25T13:19:38.484Z,-0.60
2019-01-25T13:22:07.196Z,-0.20
2019-01-25T13:24:36.407Z,0.20
2019-01-25T13:27:06.403Z,0.20
2019-01-25T13:29:35.035Z,0.10
2019-01-25T13:32:04.995Z,0.10
2019-01-25T13:34:33.579Z,0.30
2019-01-25T13:37:02.143Z,0.50
2019-01-25T13:39:30.707Z,1.00
2019-01-25T13:42:04.061Z,1.10
2019-01-25T13:48:13.229Z,-0.20
2019-01-25T13:50:44.121Z,0.00
2019-01-25T13:53:12.795Z,0.20
2019-01-25T13:59:08.585Z,-0.90
2019-01-25T14:18:46.608Z,-1.80
2019-01-25T14:21:15.771Z,-1.60
2019-01-25T14:23:47.733Z,-1.30
2019-01-25T14:26:16.498Z,-1.20
2019-01-25T14:28:45.143Z,-1.30
2019-01-25T14:31:13.744Z,-1.10
2019-01-25T14:33:42.406Z,-0.70
2019-01-25T14:36:14.965Z,-0.30
2019-01-25T14:38:43.938Z,-0.30
2019-01-25T14:41:13.251Z,-0.40
2019-01-25T14:43:41.913Z,-0.60
2019-01-25T14:49:03.232Z,-1.20
2019-01-25T14:51:31.976Z,-1.40
2019-01-25T14:54:00.711Z,-1.30
2019-01-25T14:56:30.176Z,-1.30
2019-01-25T14:59:00.835Z,-1.30
2019-01-25T15:17:26.304Z,-1.90
2019-01-25T15:19:55.531Z,-1.90
2019-01-25T15:25:55.523Z,-2.00
2019-01-25T15:28:25.474Z,-1.90
2019-01-25T15:48:12.433Z,-2.50
